sensor_id;sensor_type;location;lat;lon;timestamp;P1;durP1;ratioP1;P2;durP2;ratioP2
19495;SDS011;9888;48.606;9.630;2022-12-24T00:02:13;5.53;;;1.13;;
19495;SDS011;9888;48.606;9.630;2022-12-24T00:04:41;6.53;;;1.20;;
19495;SDS011;9888;48.606;9.630;2022-12-24T00:07:09;6.70;;;1.10;;
19495;SDS011;9888;48.606;9.630;2022-12-24T00:09:38;6.37;;;1.33;;
19495;SDS011;9888;48.606;9.630;2022-12-24T00:12:06;6.93;;;1.60;;
19495;SDS011;9888;48.606;9.630;2022-12-24T00:14:35;6.50;;;1.30;;
19495;SDS011;9888;48.606;9.630;2022-12-24T00:17:04;5.10;;;1.10;;
19495;SDS011;9888;48.606;9.630;2022-12-24T00:19:32;6.00;;;1.30;;
19495;SDS011;9888;48.606;9.630;2022-12-24T00:21:58;9.30;;;1.43;;
19495;SDS011;9888;48.606;9.630;2022-12-24T00:24:26;5.67;;;1.20;;
19495;SDS011;9888;48.606;9.630;2022-12-24T00:26:53;6.37;;;1.50;;
19495;SDS011;9888;48.606;9.630;2022-12-24T00:29:22;6.57;;;1.20;;
19495;SDS011;9888;48.606;9.630;2022-12-24T00:31:50;6.37;;;1.40;;
19495;SDS011;9888;48.606;9.630;2022-12-24T00:34:17;9.23;;;1.80;;
19495;SDS011;9888;48.606;9.630;2022-12-24T00:36:45;6.80;;;1.47;;
19495;SDS011;9888;48.606;9.630;2022-12-24T00:39:12;6.20;;;1.57;;
19495;SDS011;9888;48.606;9.630;2022-12-24T00:41:39;8.33;;;1.20;;
19495;SDS011;9888;48.606;9.630;2022-12-24T00:44:06;9.23;;;1.70;;
19495;SDS011;9888;48.606;9.630;2022-12-24T00:46:40;5.53;;;0.93;;
19495;SDS011;9888;48.606;9.630;2022-12-24T00:49:09;7.27;;;1.30;;
19495;SDS011;9888;48.606;9.630;2022-12-24T00:51:38;6.33;;;1.47;;
19495;SDS011;9888;48.606;9.630;2022-12-24T00:54:06;7.73;;;1.60;;
19495;SDS011;9888;48.606;9.630;2022-12-24T00:56:33;6.47;;;1.13;;
19495;SDS011;9888;48.606;9.630;2022-12-24T00:59:03;6.00;;;1.40;;
19495;SDS011;9888;48.606;9.630;2022-12-24T01:01:31;8.57;;;1.70;;
19495;SDS011;9888;48.606;9.630;2022-12-24T01:04:00;5.93;;;1.30;;
19495;SDS011;9888;48.606;9.630;2022-12-24T01:06:47;5.70;;;1.30;;
19495;SDS011;9888;48.606;9.630;2022-12-24T01:09:14;6.73;;;1.50;;
19495;SDS011;9888;48.606;9.630;2022-12-24T01:11:56;8.90;;;1.87;;
19495;SDS011;9888;48.606;9.630;2022-12-24T01:14:23;9.87;;;1.63;;
19495;SDS011;9888;48.606;9.630;2022-12-24T01:23:34;8.03;;;1.23;;
19495;SDS011;9888;48.606;9.630;2022-12-24T01:26:02;8.70;;;1.50;;
19495;SDS011;9888;48.606;9.630;2022-12-24T01:28:31;13.83;;;1.43;;
19495;SDS011;9888;48.606;9.630;2022-12-24T01:30:58;6.60;;;1.40;;
19495;SDS011;9888;48.606;9.630;2022-12-24T01:33:28;8.27;;;1.57;;
19495;SDS011;9888;48.606;9.630;2022-12-24T01:35:55;5.57;;;1.23;;
19495;SDS011;9888;48.606;9.630;2022-12-24T01:38:41;8.43;;;1.53;;
19495;SDS011;9888;48.606;9.630;2022-12-24T01:41:18;9.97;;;1.60;;
19495;SDS011;9888;48.606;9.630;2022-12-24T01:47:13;7.53;;;1.30;;
19495;SDS011;9888;48.606;9.630;2022-12-24T01:49:54;7.50;;;1.70;;
19495;SDS011;9888;48.606;9.630;2022-12-24T01:52:26;7.60;;;1.63;;
19495;SDS011;9888;48.606;9.630;2022-12-24T01:55:07;8.13;;;1.50;;
19495;SDS011;9888;48.606;9.630;2022-12-24T01:57:51;8.30;;;1.47;;
19495;SDS011;9888;48.606;9.630;2022-12-24T02:00:22;8.13;;;1.50;;
19495;SDS011;9888;48.606;9.630;2022-12-24T02:02:49;7.53;;;1.47;;
19495;SDS011;9888;48.606;9.630;2022-12-24T02:05:23;6.00;;;1.50;;
19495;SDS011;9888;48.606;9.630;2022-12-24T02:08:16;6.40;;;1.50;;
19495;SDS011;9888;48.606;9.630;2022-12-24T02:10:45;7.73;;;1.50;;
19495;SDS011;9888;48.606;9.630;2022-12-24T02:13:15;7.23;;;1.50;;
19495;SDS011;9888;48.606;9.630;2022-12-24T02:16:03;8.50;;;1.70;;
19495;SDS011;9888;48.606;9.630;2022-12-24T02:27:07;8.60;;;2.00;;
19495;SDS011;9888;48.606;9.630;2022-12-24T02:29:59;9.07;;;1.53;;
19495;SDS011;9888;48.606;9.630;2022-12-24T02:32:44;8.40;;;1.50;;
19495;SDS011;9888;48.606;9.630;2022-12-24T02:35:35;11.17;;;1.43;;
19495;SDS011;9888;48.606;9.630;2022-12-24T02:38:37;9.50;;;1.50;;
19495;SDS011;9888;48.606;9.630;2022-12-24T02:41:20;6.33;;;1.50;;
19495;SDS011;9888;48.606;9.630;2022-12-24T02:44:13;9.20;;;1.60;;
19495;SDS011;9888;48.606;9.630;2022-12-24T02:46:41;8.10;;;1.90;;
19495;SDS011;9888;48.606;9.630;2022-12-24T02:55:11;6.10;;;1.53;;
19495;SDS011;9888;48.606;9.630;2022-12-24T03:00:08;10.27;;;2.23;;
19495;SDS011;9888;48.606;9.630;2022-12-24T03:11:05;9.53;;;2.03;;
19495;SDS011;9888;48.606;9.630;2022-12-24T03:13:38;10.50;;;1.40;;
19495;SDS011;9888;48.606;9.630;2022-12-24T03:16:10;5.60;;;1.13;;
19495;SDS011;9888;48.606;9.630;2022-12-24T03:18:45;9.73;;;1.60;;
19495;SDS011;9888;48.606;9.630;2022-12-24T03:21:23;13.73;;;1.90;;
19495;SDS011;9888;48.606;9.630;2022-12-24T03:23:54;9.17;;;1.60;;
19495;SDS011;9888;48.606;9.630;2022-12-24T03:26:21;5.90;;;1.20;;
19495;SDS011;9888;48.606;9.630;2022-12-24T03:28:52;8.33;;;1.20;;
19495;SDS011;9888;48.606;9.630;2022-12-24T03:31:20;6.60;;;1.63;;
19495;SDS011;9888;48.606;9.630;2022-12-24T03:33:48;11.70;;;1.73;;
19495;SDS011;9888;48.606;9.630;2022-12-24T03:36:29;6.37;;;1.33;;
19495;SDS011;9888;48.606;9.630;2022-12-24T03:38:56;7.53;;;1.60;;
19495;SDS011;9888;48.606;9.630;2022-12-24T03:41:24;7.93;;;1.50;;
19495;SDS011;9888;48.606;9.630;2022-12-24T03:43:51;11.20;;;1.90;;
19495;SDS011;9888;48.606;9.630;2022-12-24T03:46:20;6.13;;;1.70;;
19495;SDS011;9888;48.606;9.630;2022-12-24T03:48:52;9.43;;;1.47;;
19495;SDS011;9888;48.606;9.630;2022-12-24T03:51:24;7.93;;;1.77;;
19495;SDS011;9888;48.606;9.630;2022-12-24T03:53:52;13.30;;;2.10;;
19495;SDS011;9888;48.606;9.630;2022-12-24T03:56:20;6.90;;;1.80;;
19495;SDS011;9888;48.606;9.630;2022-12-24T03:58:48;7.50;;;1.60;;
19495;SDS011;9888;48.606;9.630;2022-12-24T04:01:16;6.60;;;1.43;;
19495;SDS011;9888;48.606;9.630;2022-12-24T04:03:46;6.83;;;1.53;;
19495;SDS011;9888;48.606;9.630;2022-12-24T04:06:14;6.77;;;1.70;;
19495;SDS011;9888;48.606;9.630;2022-12-24T04:08:42;7.40;;;1.50;;
19495;SDS011;9888;48.606;9.630;2022-12-24T04:11:10;8.40;;;1.53;;
19495;SDS011;9888;48.606;9.630;2022-12-24T04:13:39;6.97;;;1.70;;
19495;SDS011;9888;48.606;9.630;2022-12-24T04:16:07;8.20;;;1.63;;
19495;SDS011;9888;48.606;9.630;2022-12-24T04:18:37;8.73;;;2.00;;
19495;SDS011;9888;48.606;9.630;2022-12-24T04:21:05;6.97;;;1.57;;
19495;SDS011;9888;48.606;9.630;2022-12-24T04:23:34;6.50;;;1.80;;
19495;SDS011;9888;48.606;9.630;2022-12-24T04:26:03;7.73;;;1.60;;
19495;SDS011;9888;48.606;9.630;2022-12-24T04:28:32;9.50;;;1.80;;
19495;SDS011;9888;48.606;9.630;2022-12-24T04:31:02;7.17;;;1.70;;
19495;SDS011;9888;48.606;9.630;2022-12-24T04:33:32;10.10;;;1.93;;
19495;SDS011;9888;48.606;9.630;2022-12-24T04:36:00;7.67;;;1.40;;
19495;SDS011;9888;48.606;9.630;2022-12-24T04:38:27;8.13;;;1.80;;
19495;SDS011;9888;48.606;9.630;2022-12-24T04:41:02;8.37;;;1.53;;
19495;SDS011;9888;48.606;9.630;2022-12-24T04:43:31;6.80;;;1.47;;
19495;SDS011;9888;48.606;9.630;2022-12-24T04:46:08;8.23;;;1.60;;
19495;SDS011;9888;48.606;9.630;2022-12-24T04:48:40;9.33;;;1.67;;
19495;SDS011;9888;48.606;9.630;2022-12-24T04:51:07;9.43;;;1.93;;
19495;SDS011;9888;48.606;9.630;2022-12-24T04:53:35;8.00;;;1.63;;
19495;SDS011;9888;48.606;9.630;2022-12-24T04:56:06;9.80;;;2.40;;
19495;SDS011;9888;48.606;9.630;2022-12-24T04:58:38;8.87;;;1.40;;
19495;SDS011;9888;48.606;9.630;2022-12-24T05:01:07;6.70;;;1.50;;
19495;SDS011;9888;48.606;9.630;2022-12-24T05:03:43;9.33;;;1.50;;
19495;SDS011;9888;48.606;9.630;2022-12-24T05:06:13;9.67;;;1.80;;
19495;SDS011;9888;48.606;9.630;2022-12-24T05:08:42;8.47;;;1.70;;
19495;SDS011;9888;48.606;9.630;2022-12-24T05:11:10;7.30;;;1.60;;
19495;SDS011;9888;48.606;9.630;2022-12-24T05:13:41;9.57;;;2.00;;
19495;SDS011;9888;48.606;9.630;2022-12-24T05:16:10;8.60;;;1.50;;
19495;SDS011;9888;48.606;9.630;2022-12-24T05:18:39;11.70;;;1.70;;
19495;SDS011;9888;48.606;9.630;2022-12-24T05:21:11;6.20;;;1.80;;
19495;SDS011;9888;48.606;9.630;2022-12-24T05:23:41;8.03;;;1.80;;
19495;SDS011;9888;48.606;9.630;2022-12-24T22:12:03;8.10;;;3.50;;
19495;SDS011;9888;48.606;9.630;2022-12-24T22:14:31;7.70;;;2.80;;
19495;SDS011;9888;48.606;9.630;2022-12-24T22:16:58;8.07;;;2.77;;
19495;SDS011;9888;48.606;9.630;2022-12-24T22:19:25;8.60;;;2.80;;
19495;SDS011;9888;48.606;9.630;2022-12-24T22:21:53;7.20;;;2.57;;
19495;SDS011;9888;48.606;9.630;2022-12-24T22:24:20;7.80;;;2.83;;
19495;SDS011;9888;48.606;9.630;2022-12-24T22:26:48;8.10;;;2.47;;
19495;SDS011;9888;48.606;9.630;2022-12-24T22:29:16;7.37;;;2.83;;
19495;SDS011;9888;48.606;9.630;2022-12-24T22:31:44;8.20;;;2.80;;
19495;SDS011;9888;48.606;9.630;2022-12-24T22:34:11;9.17;;;3.13;;
19495;SDS011;9888;48.606;9.630;2022-12-24T22:36:39;6.63;;;2.50;;
19495;SDS011;9888;48.606;9.630;2022-12-24T22:39:07;7.57;;;2.40;;
19495;SDS011;9888;48.606;9.630;2022-12-24T22:41:35;8.53;;;2.67;;
19495;SDS011;9888;48.606;9.630;2022-12-24T22:44:02;8.10;;;2.80;;
19495;SDS011;9888;48.606;9.630;2022-12-24T22:46:29;7.53;;;2.47;;
19495;SDS011;9888;48.606;9.630;2022-12-24T22:48:57;7.43;;;2.63;;
19495;SDS011;9888;48.606;9.630;2022-12-24T22:51:30;9.00;;;2.30;;
19495;SDS011;9888;48.606;9.630;2022-12-24T22:53:58;8.90;;;2.10;;
19495;SDS011;9888;48.606;9.630;2022-12-24T22:56:25;6.87;;;2.43;;
19495;SDS011;9888;48.606;9.630;2022-12-24T22:58:53;7.87;;;2.83;;
19495;SDS011;9888;48.606;9.630;2022-12-24T23:04:42;5.37;;;1.47;;
19495;SDS011;9888;48.606;9.630;2022-12-24T23:07:10;7.57;;;1.53;;
19495;SDS011;9888;48.606;9.630;2022-12-24T23:09:38;6.10;;;1.60;;
19495;SDS011;9888;48.606;9.630;2022-12-24T23:12:06;7.10;;;1.90;;
19495;SDS011;9888;48.606;9.630;2022-12-24T23:14:33;6.50;;;1.60;;
19495;SDS011;9888;48.606;9.630;2022-12-24T23:17:19;6.20;;;1.80;;
19495;SDS011;9888;48.606;9.630;2022-12-24T23:19:46;8.47;;;1.73;;
19495;SDS011;9888;48.606;9.630;2022-12-24T23:22:14;5.90;;;1.83;;
19495;SDS011;9888;48.606;9.630;2022-12-24T23:24:41;6.27;;;2.27;;
19495;SDS011;9888;48.606;9.630;2022-12-24T23:27:08;6.20;;;1.77;;
19495;SDS011;9888;48.606;9.630;2022-12-24T23:29:35;8.37;;;2.13;;
19495;SDS011;9888;48.606;9.630;2022-12-24T23:32:02;7.10;;;1.93;;
19495;SDS011;9888;48.606;9.630;2022-12-24T23:34:29;5.83;;;1.80;;
19495;SDS011;9888;48.606;9.630;2022-12-24T23:36:58;6.10;;;1.60;;
19495;SDS011;9888;48.606;9.630;2022-12-24T23:39:25;6.27;;;1.83;;
19495;SDS011;9888;48.606;9.630;2022-12-24T23:41:52;6.40;;;1.63;;
19495;SDS011;9888;48.606;9.630;2022-12-24T23:44:19;5.60;;;1.60;;
19495;SDS011;9888;48.606;9.630;2022-12-24T23:46:46;6.00;;;1.70;;
19495;SDS011;9888;48.606;9.630;2022-12-24T23:49:13;6.40;;;1.97;;
19495;SDS011;9888;48.606;9.630;2022-12-24T23:51:40;5.80;;;1.67;;
19495;SDS011;9888;48.606;9.630;2022-12-24T23:54:07;6.20;;;1.70;;
19495;SDS011;9888;48.606;9.630;2022-12-24T23:56:34;6.07;;;1.33;;
19495;SDS011;9888;48.606;9.630;2022-12-24T23:59:02;6.13;;;1.30;;
